sensor_id;sensor_type;location;lat;lon;timestamp;temperature;humidity
5415;DHT22;2730;51.512;7.504;2022-10-16T05:02:15;13.10;99.90
5415;DHT22;2730;51.512;7.504;2022-10-16T05:04:41;13.00;99.90
5415;DHT22;2730;51.512;7.504;2022-10-16T05:07:08;13.10;99.90
5415;DHT22;2730;51.512;7.504;2022-10-16T05:09:35;13.00;99.90
5415;DHT22;2730;51.512;7.504;2022-10-16T05:12:02;13.00;99.90
5415;DHT22;2730;51.512;7.504;2022-10-16T05:14:30;13.00;99.90
5415;DHT22;2730;51.512;7.504;2022-10-16T05:16:56;13.10;99.90
5415;DHT22;2730;51.512;7.504;2022-10-16T05:19:25;13.10;99.90
5415;DHT22;2730;51.512;7.504;2022-10-16T05:21:51;13.10;99.90
5415;DHT22;2730;51.512;7.504;2022-10-16T05:24:18;13.10;99.90
5415;DHT22;2730;51.512;7.504;2022-10-16T05:26:45;13.10;99.90
5415;DHT22;2730;51.512;7.504;2022-10-16T05:29:12;13.10;99.90
5415;DHT22;2730;51.512;7.504;2022-10-16T05:31:39;13.20;99.90
5415;DHT22;2730;51.512;7.504;2022-10-16T05:34:05;13.20;99.90
5415;DHT22;2730;51.512;7.504;2022-10-16T05:36:34;13.20;99.90
5415;DHT22;2730;51.512;7.504;2022-10-16T05:39:00;13.20;99.90
5415;DHT22;2730;51.512;7.504;2022-10-16T05:41:27;13.30;99.90
5415;DHT22;2730;51.512;7.504;2022-10-16T05:43:54;13.20;99.90
5415;DHT22;2730;51.512;7.504;2022-10-16T05:46:21;13.30;99.90
5415;DHT22;2730;51.512;7.504;2022-10-16T05:48:48;13.30;99.90
5415;DHT22;2730;51.512;7.504;2022-10-16T05:51:15;13.20;99.90
5415;DHT22;2730;51.512;7.504;2022-10-16T05:53:43;13.20;99.90
5415;DHT22;2730;51.512;7.504;2022-10-16T05:56:10;13.20;99.90
5415;DHT22;2730;51.512;7.504;2022-10-16T05:58:38;13.10;99.90
5415;DHT22;2730;51.512;7.504;2022-10-16T06:01:09;13.20;99.90
5415;DHT22;2730;51.512;7.504;2022-10-16T06:03:37;13.20;99.90
5415;DHT22;2730;51.512;7.504;2022-10-16T06:06:11;13.20;99.90
5415;DHT22;2730;51.512;7.504;2022-10-16T06:08:38;13.20;99.90
5415;DHT22;2730;51.512;7.504;2022-10-16T06:11:08;13.20;99.90
5415;DHT22;2730;51.512;7.504;2022-10-16T06:13:35;13.20;99.90
5415;DHT22;2730;51.512;7.504;2022-10-16T06:16:03;13.20;99.90
5415;DHT22;2730;51.512;7.504;2022-10-16T06:18:30;13.30;99.90
5415;DHT22;2730;51.512;7.504;2022-10-16T06:20:57;13.30;99.90
5415;DHT22;2730;51.512;7.504;2022-10-16T06:23:25;13.30;99.90
5415;DHT22;2730;51.512;7.504;2022-10-16T06:25:52;13.30;99.90
5415;DHT22;2730;51.512;7.504;2022-10-16T06:28:20;13.30;99.90
5415;DHT22;2730;51.512;7.504;2022-10-16T06:30:47;13.40;99.90
5415;DHT22;2730;51.512;7.504;2022-10-16T06:33:13;13.50;99.90
5415;DHT22;2730;51.512;7.504;2022-10-16T06:35:40;13.50;99.90
5415;DHT22;2730;51.512;7.504;2022-10-16T06:38:07;13.40;99.90
5415;DHT22;2730;51.512;7.504;2022-10-16T06:40:34;13.50;99.90
5415;DHT22;2730;51.512;7.504;2022-10-16T06:43:01;13.50;99.90
5415;DHT22;2730;51.512;7.504;2022-10-16T06:45:29;13.40;99.90
5415;DHT22;2730;51.512;7.504;2022-10-16T06:47:56;13.40;99.90
5415;DHT22;2730;51.512;7.504;2022-10-16T06:50:25;13.50;99.90
5415;DHT22;2730;51.512;7.504;2022-10-16T06:52:58;13.60;99.90
5415;DHT22;2730;51.512;7.504;2022-10-16T06:55:27;13.70;99.90
5415;DHT22;2730;51.512;7.504;2022-10-16T06:57:55;13.70;99.90
5415;DHT22;2730;51.512;7.504;2022-10-16T07:00:40;13.70;99.90
5415;DHT22;2730;51.512;7.504;2022-10-16T07:03:10;13.80;99.90
5415;DHT22;2730;51.512;7.504;2022-10-16T07:05:41;13.90;99.90
5415;DHT22;2730;51.512;7.504;2022-10-16T07:08:21;13.90;99.90
5415;DHT22;2730;51.512;7.504;2022-10-16T07:10:58;13.90;99.90
5415;DHT22;2730;51.512;7.504;2022-10-16T07:13:25;14.00;99.90
5415;DHT22;2730;51.512;7.504;2022-10-16T07:15:55;14.00;99.90
5415;DHT22;2730;51.512;7.504;2022-10-16T07:18:22;14.20;99.90
5415;DHT22;2730;51.512;7.504;2022-10-16T07:20:52;14.20;99.90
5415;DHT22;2730;51.512;7.504;2022-10-16T07:23:19;14.30;99.90
5415;DHT22;2730;51.512;7.504;2022-10-16T07:25:46;14.40;99.90
5415;DHT22;2730;51.512;7.504;2022-10-16T07:28:19;14.50;99.90
5415;DHT22;2730;51.512;7.504;2022-10-16T07:30:46;14.50;99.90
5415;DHT22;2730;51.512;7.504;2022-10-16T07:33:15;14.50;99.90
5415;DHT22;2730;51.512;7.504;2022-10-16T07:35:48;14.40;99.90
5415;DHT22;2730;51.512;7.504;2022-10-16T07:38:15;14.30;99.90
5415;DHT22;2730;51.512;7.504;2022-10-16T07:40:42;14.30;99.90
5415;DHT22;2730;51.512;7.504;2022-10-16T07:43:09;14.30;99.90
5415;DHT22;2730;51.512;7.504;2022-10-16T07:45:36;14.40;99.90
5415;DHT22;2730;51.512;7.504;2022-10-16T07:48:03;14.30;99.90
5415;DHT22;2730;51.512;7.504;2022-10-16T07:50:31;14.40;99.90
5415;DHT22;2730;51.512;7.504;2022-10-16T07:52:58;14.30;99.90
5415;DHT22;2730;51.512;7.504;2022-10-16T07:55:25;14.30;99.90
5415;DHT22;2730;51.512;7.504;2022-10-16T07:57:52;14.40;99.90
5415;DHT22;2730;51.512;7.504;2022-10-16T08:00:25;14.50;99.90
5415;DHT22;2730;51.512;7.504;2022-10-16T08:05:59;14.60;99.90
5415;DHT22;2730;51.512;7.504;2022-10-16T08:08:26;14.60;99.90
5415;DHT22;2730;51.512;7.504;2022-10-16T08:11:03;14.50;99.90
5415;DHT22;2730;51.512;7.504;2022-10-16T08:13:30;14.60;99.90
5415;DHT22;2730;51.512;7.504;2022-10-16T08:16:11;14.60;99.90
5415;DHT22;2730;51.512;7.504;2022-10-16T08:18:39;14.70;99.90
5415;DHT22;2730;51.512;7.504;2022-10-16T08:21:13;14.70;99.90
5415;DHT22;2730;51.512;7.504;2022-10-16T08:23:40;14.80;99.90
5415;DHT22;2730;51.512;7.504;2022-10-16T08:26:11;14.90;99.90
5415;DHT22;2730;51.512;7.504;2022-10-16T08:28:39;15.00;99.90
5415;DHT22;2730;51.512;7.504;2022-10-16T08:31:07;15.10;99.90
5415;DHT22;2730;51.512;7.504;2022-10-16T08:33:35;15.80;99.90
5415;DHT22;2730;51.512;7.504;2022-10-16T08:36:03;17.20;99.90
5415;DHT22;2730;51.512;7.504;2022-10-16T08:38:31;18.70;99.90
5415;DHT22;2730;51.512;7.504;2022-10-16T08:41:08;20.30;99.90
5415;DHT22;2730;51.512;7.504;2022-10-16T08:43:54;21.60;99.90
5415;DHT22;2730;51.512;7.504;2022-10-16T08:46:34;22.20;99.90
5415;DHT22;2730;51.512;7.504;2022-10-16T08:49:03;22.70;99.90
5415;DHT22;2730;51.512;7.504;2022-10-16T08:51:32;22.60;99.90
5415;DHT22;2730;51.512;7.504;2022-10-16T08:54:05;22.90;99.90
5415;DHT22;2730;51.512;7.504;2022-10-16T08:56:45;23.20;99.90
5415;DHT22;2730;51.512;7.504;2022-10-16T08:59:14;23.00;99.90
5415;DHT22;2730;51.512;7.504;2022-10-16T09:01:45;23.00;99.90
5415;DHT22;2730;51.512;7.504;2022-10-16T09:04:42;22.60;99.90
5415;DHT22;2730;51.512;7.504;2022-10-16T09:07:13;23.00;99.90
5415;DHT22;2730;51.512;7.504;2022-10-16T09:09:54;23.00;99.90
5415;DHT22;2730;51.512;7.504;2022-10-16T09:12:28;23.20;99.90
5415;DHT22;2730;51.512;7.504;2022-10-16T09:15:03;23.30;99.90
5415;DHT22;2730;51.512;7.504;2022-10-16T09:17:42;23.50;99.90
5415;DHT22;2730;51.512;7.504;2022-10-16T09:20:33;23.20;99.90
5415;DHT22;2730;51.512;7.504;2022-10-16T09:23:13;23.20;99.90
5415;DHT22;2730;51.512;7.504;2022-10-16T09:25:45;23.50;99.90
5415;DHT22;2730;51.512;7.504;2022-10-16T09:28:13;23.60;99.90
5415;DHT22;2730;51.512;7.504;2022-10-16T09:30:40;24.00;99.90
5415;DHT22;2730;51.512;7.504;2022-10-16T09:33:17;23.40;99.90
5415;DHT22;2730;51.512;7.504;2022-10-16T09:35:54;23.20;99.90
5415;DHT22;2730;51.512;7.504;2022-10-16T09:38:26;22.90;99.90
5415;DHT22;2730;51.512;7.504;2022-10-16T09:40:56;22.40;99.90
5415;DHT22;2730;51.512;7.504;2022-10-16T09:43:25;22.80;99.90
5415;DHT22;2730;51.512;7.504;2022-10-16T09:45:58;23.20;99.90
5415;DHT22;2730;51.512;7.504;2022-10-16T09:48:30;23.00;99.90
5415;DHT22;2730;51.512;7.504;2022-10-16T09:50:59;22.90;99.90
5415;DHT22;2730;51.512;7.504;2022-10-16T09:53:39;22.70;99.90
5415;DHT22;2730;51.512;7.504;2022-10-16T09:56:10;22.30;99.90
5415;DHT22;2730;51.512;7.504;2022-10-16T09:58:42;21.80;99.90
5415;DHT22;2730;51.512;7.504;2022-10-16T10:01:13;21.90;99.90
5415;DHT22;2730;51.512;7.504;2022-10-16T10:03:43;22.30;99.90
5415;DHT22;2730;51.512;7.504;2022-10-16T10:06:21;22.60;99.90
5415;DHT22;2730;51.512;7.504;2022-10-16T10:09:00;22.80;99.90
5415;DHT22;2730;51.512;7.504;2022-10-16T10:11:54;22.90;99.90
5415;DHT22;2730;51.512;7.504;2022-10-16T10:14:27;22.40;99.90
5415;DHT22;2730;51.512;7.504;2022-10-16T10:17:14;22.00;99.90
5415;DHT22;2730;51.512;7.504;2022-10-16T10:19:46;21.90;99.90
5415;DHT22;2730;51.512;7.504;2022-10-16T10:22:29;22.30;99.90
5415;DHT22;2730;51.512;7.504;2022-10-16T10:25:01;22.90;99.90
5415;DHT22;2730;51.512;7.504;2022-10-16T10:27:42;23.30;99.90
5415;DHT22;2730;51.512;7.504;2022-10-16T10:30:15;23.90;99.90
5415;DHT22;2730;51.512;7.504;2022-10-16T10:32:50;24.10;99.90
5415;DHT22;2730;51.512;7.504;2022-10-16T10:35:22;24.10;99.90
5415;DHT22;2730;51.512;7.504;2022-10-16T10:38:02;23.40;99.90
5415;DHT22;2730;51.512;7.504;2022-10-16T10:40:40;22.80;99.90
5415;DHT22;2730;51.512;7.504;2022-10-16T10:43:22;22.30;99.90
5415;DHT22;2730;51.512;7.504;2022-10-16T10:45:56;22.10;99.90
5415;DHT22;2730;51.512;7.504;2022-10-16T10:48:47;21.40;99.90
5415;DHT22;2730;51.512;7.504;2022-10-16T10:51:23;20.80;99.90
5415;DHT22;2730;51.512;7.504;2022-10-16T10:53:55;20.30;99.90
5415;DHT22;2730;51.512;7.504;2022-10-16T10:56:47;19.90;99.90
5415;DHT22;2730;51.512;7.504;2022-10-16T10:59:33;19.50;99.90
5415;DHT22;2730;51.512;7.504;2022-10-16T11:02:10;19.30;99.90
5415;DHT22;2730;51.512;7.504;2022-10-16T11:04:57;19.30;99.90
5415;DHT22;2730;51.512;7.504;2022-10-16T11:07:28;19.30;99.90
5415;DHT22;2730;51.512;7.504;2022-10-16T11:09:59;19.30;99.90
5415;DHT22;2730;51.512;7.504;2022-10-16T11:12:31;19.30;99.90
5415;DHT22;2730;51.512;7.504;2022-10-16T11:15:07;19.40;99.90
5415;DHT22;2730;51.512;7.504;2022-10-16T11:17:41;19.40;99.90
5415;DHT22;2730;51.512;7.504;2022-10-16T11:20:14;19.40;99.90
5415;DHT22;2730;51.512;7.504;2022-10-16T11:22:44;19.40;99.90
5415;DHT22;2730;51.512;7.504;2022-10-16T11:25:16;19.30;99.90
5415;DHT22;2730;51.512;7.504;2022-10-16T11:27:51;19.20;99.90
5415;DHT22;2730;51.512;7.504;2022-10-16T11:30:22;19.20;99.90
5415;DHT22;2730;51.512;7.504;2022-10-16T11:32:56;19.20;99.90
5415;DHT22;2730;51.512;7.504;2022-10-16T11:35:37;19.20;99.90
5415;DHT22;2730;51.512;7.504;2022-10-16T11:38:11;19.10;99.90
5415;DHT22;2730;51.512;7.504;2022-10-16T11:40:41;19.10;99.90
5415;DHT22;2730;51.512;7.504;2022-10-16T11:43:14;19.10;99.90
5415;DHT22;2730;51.512;7.504;2022-10-16T11:45:45;19.10;99.90
5415;DHT22;2730;51.512;7.504;2022-10-16T11:48:20;19.00;99.90
5415;DHT22;2730;51.512;7.504;2022-10-16T11:50:53;19.00;99.90
5415;DHT22;2730;51.512;7.504;2022-10-16T11:53:27;19.00;99.90
5415;DHT22;2730;51.512;7.504;2022-10-16T11:55:56;19.10;99.90
5415;DHT22;2730;51.512;7.504;2022-10-16T11:58:26;19.20;99.90
5415;DHT22;2730;51.512;7.504;2022-10-16T12:01:04;19.20;99.90
5415;DHT22;2730;51.512;7.504;2022-10-16T12:03:42;19.20;99.90
5415;DHT22;2730;51.512;7.504;2022-10-16T12:06:26;19.10;99.90
5415;DHT22;2730;51.512;7.504;2022-10-16T12:08:58;19.10;99.90
5415;DHT22;2730;51.512;7.504;2022-10-16T12:11:35;19.10;99.90
5415;DHT22;2730;51.512;7.504;2022-10-16T12:14:21;19.00;99.90
5415;DHT22;2730;51.512;7.504;2022-10-16T12:16:55;19.20;99.90
5415;DHT22;2730;51.512;7.504;2022-10-16T12:19:23;19.20;99.90
5415;DHT22;2730;51.512;7.504;2022-10-16T12:21:52;19.20;99.90
5415;DHT22;2730;51.512;7.504;2022-10-16T12:24:32;19.20;99.90
5415;DHT22;2730;51.512;7.504;2022-10-16T12:27:00;19.20;99.90
5415;DHT22;2730;51.512;7.504;2022-10-16T12:29:34;19.20;99.90
5415;DHT22;2730;51.512;7.504;2022-10-16T12:32:05;19.10;99.90
5415;DHT22;2730;51.512;7.504;2022-10-16T12:34:39;19.10;99.90
5415;DHT22;2730;51.512;7.504;2022-10-16T12:37:11;19.10;99.90
5415;DHT22;2730;51.512;7.504;2022-10-16T12:39:39;19.00;99.90
5415;DHT22;2730;51.512;7.504;2022-10-16T12:42:21;19.00;99.90
5415;DHT22;2730;51.512;7.504;2022-10-16T12:44:48;19.10;99.90
5415;DHT22;2730;51.512;7.504;2022-10-16T12:47:35;19.20;99.90
5415;DHT22;2730;51.512;7.504;2022-10-16T12:50:03;19.30;99.90
5415;DHT22;2730;51.512;7.504;2022-10-16T12:52:48;19.30;99.90
5415;DHT22;2730;51.512;7.504;2022-10-16T12:55:17;19.40;99.90
5415;DHT22;2730;51.512;7.504;2022-10-16T12:57:57;19.50;99.90
5415;DHT22;2730;51.512;7.504;2022-10-16T13:00:32;19.40;99.90
5415;DHT22;2730;51.512;7.504;2022-10-16T13:03:40;19.30;99.90
5415;DHT22;2730;51.512;7.504;2022-10-16T13:06:19;19.40;99.90
5415;DHT22;2730;51.512;7.504;2022-10-16T13:09:02;19.30;99.90
5415;DHT22;2730;51.512;7.504;2022-10-16T13:11:45;19.30;99.90
5415;DHT22;2730;51.512;7.504;2022-10-16T13:14:32;19.30;99.90
5415;DHT22;2730;51.512;7.504;2022-10-16T13:17:08;19.30;99.90
5415;DHT22;2730;51.512;7.504;2022-10-16T13:19:46;19.40;99.90
5415;DHT22;2730;51.512;7.504;2022-10-16T13:22:22;19.40;99.90
5415;DHT22;2730;51.512;7.504;2022-10-16T13:25:02;19.20;99.90
5415;DHT22;2730;51.512;7.504;2022-10-16T13:27:40;19.30;99.90
5415;DHT22;2730;51.512;7.504;2022-10-16T13:30:13;19.40;99.90
5415;DHT22;2730;51.512;7.504;2022-10-16T13:32:45;19.30;99.90
5415;DHT22;2730;51.512;7.504;2022-10-16T13:35:27;19.30;99.90
5415;DHT22;2730;51.512;7.504;2022-10-16T13:38:04;19.20;99.90
5415;DHT22;2730;51.512;7.504;2022-10-16T13:40:32;19.20;99.90
5415;DHT22;2730;51.512;7.504;2022-10-16T13:43:00;19.20;99.90
5415;DHT22;2730;51.512;7.504;2022-10-16T13:45:27;19.20;99.90
5415;DHT22;2730;51.512;7.504;2022-10-16T13:48:02;19.00;99.90
5415;DHT22;2730;51.512;7.504;2022-10-16T13:50:30;18.80;99.90
5415;DHT22;2730;51.512;7.504;2022-10-16T13:53:04;18.70;99.90
5415;DHT22;2730;51.512;7.504;2022-10-16T13:55:32;18.70;99.90
5415;DHT22;2730;51.512;7.504;2022-10-16T13:58:05;18.70;99.90
5415;DHT22;2730;51.512;7.504;2022-10-16T14:00:32;18.80;99.90
5415;DHT22;2730;51.512;7.504;2022-10-16T14:03:02;19.00;99.90
5415;DHT22;2730;51.512;7.504;2022-10-16T14:05:31;19.00;99.90
5415;DHT22;2730;51.512;7.504;2022-10-16T14:07:59;19.10;99.90
5415;DHT22;2730;51.512;7.504;2022-10-16T14:10:29;19.20;99.90
5415;DHT22;2730;51.512;7.504;2022-10-16T14:12:58;19.10;99.90
5415;DHT22;2730;51.512;7.504;2022-10-16T14:15:26;19.00;99.90
5415;DHT22;2730;51.512;7.504;2022-10-16T14:17:53;19.00;99.90
5415;DHT22;2730;51.512;7.504;2022-10-16T14:20:25;18.90;99.90
5415;DHT22;2730;51.512;7.504;2022-10-16T14:23:01;18.90;99.90
5415;DHT22;2730;51.512;7.504;2022-10-16T14:25:30;18.90;99.90
5415;DHT22;2730;51.512;7.504;2022-10-16T14:27:59;18.90;99.90
5415;DHT22;2730;51.512;7.504;2022-10-16T14:30:27;18.90;99.90
5415;DHT22;2730;51.512;7.504;2022-10-16T14:32:56;18.90;99.90
5415;DHT22;2730;51.512;7.504;2022-10-16T14:35:30;19.00;99.90
5415;DHT22;2730;51.512;7.504;2022-10-16T14:38:00;18.90;99.90
5415;DHT22;2730;51.512;7.504;2022-10-16T14:40:29;18.80;99.90
5415;DHT22;2730;51.512;7.504;2022-10-16T14:42:57;18.80;99.90
5415;DHT22;2730;51.512;7.504;2022-10-16T14:45:26;18.70;99.90
5415;DHT22;2730;51.512;7.504;2022-10-16T14:47:55;18.60;99.90
5415;DHT22;2730;51.512;7.504;2022-10-16T14:50:23;18.40;99.90
5415;DHT22;2730;51.512;7.504;2022-10-16T14:52:50;18.20;99.90
5415;DHT22;2730;51.512;7.504;2022-10-16T14:55:18;18.20;99.90
5415;DHT22;2730;51.512;7.504;2022-10-16T14:57:45;18.20;99.90
5415;DHT22;2730;51.512;7.504;2022-10-16T15:00:17;18.10;99.90
5415;DHT22;2730;51.512;7.504;2022-10-16T15:02:45;18.10;99.90
5415;DHT22;2730;51.512;7.504;2022-10-16T15:05:16;18.10;99.90
5415;DHT22;2730;51.512;7.504;2022-10-16T15:07:45;18.10;99.90
5415;DHT22;2730;51.512;7.504;2022-10-16T15:10:12;18.20;99.90
5415;DHT22;2730;51.512;7.504;2022-10-16T15:12:41;18.30;99.90
5415;DHT22;2730;51.512;7.504;2022-10-16T15:15:26;18.20;99.90
5415;DHT22;2730;51.512;7.504;2022-10-16T15:17:55;18.10;99.90
5415;DHT22;2730;51.512;7.504;2022-10-16T15:20:23;18.00;99.90
5415;DHT22;2730;51.512;7.504;2022-10-16T15:22:50;17.80;99.90
5415;DHT22;2730;51.512;7.504;2022-10-16T15:25:31;17.70;99.90
5415;DHT22;2730;51.512;7.504;2022-10-16T15:28:01;17.50;99.90
5415;DHT22;2730;51.512;7.504;2022-10-16T15:30:28;17.30;99.90
5415;DHT22;2730;51.512;7.504;2022-10-16T15:32:55;17.20;99.90
5415;DHT22;2730;51.512;7.504;2022-10-16T15:35:22;17.10;99.90
5415;DHT22;2730;51.512;7.504;2022-10-16T15:37:49;16.90;99.90
5415;DHT22;2730;51.512;7.504;2022-10-16T15:40:18;16.80;99.90
5415;DHT22;2730;51.512;7.504;2022-10-16T15:42:48;16.80;99.90
5415;DHT22;2730;51.512;7.504;2022-10-16T15:45:16;16.80;99.90
5415;DHT22;2730;51.512;7.504;2022-10-16T15:47:47;16.80;99.90
5415;DHT22;2730;51.512;7.504;2022-10-16T15:50:15;16.80;99.90
5415;DHT22;2730;51.512;7.504;2022-10-16T15:52:43;16.80;99.90
5415;DHT22;2730;51.512;7.504;2022-10-16T15:55:13;16.80;99.90
5415;DHT22;2730;51.512;7.504;2022-10-16T15:57:41;16.80;99.90
5415;DHT22;2730;51.512;7.504;2022-10-16T16:00:11;16.90;99.90
5415;DHT22;2730;51.512;7.504;2022-10-16T16:02:39;16.80;99.90
5415;DHT22;2730;51.512;7.504;2022-10-16T16:05:08;16.80;99.90
5415;DHT22;2730;51.512;7.504;2022-10-16T16:07:36;16.80;99.90
5415;DHT22;2730;51.512;7.504;2022-10-16T16:10:07;16.80;99.90
5415;DHT22;2730;51.512;7.504;2022-10-16T16:12:34;16.70;99.90
5415;DHT22;2730;51.512;7.504;2022-10-16T16:15:01;16.70;99.90
5415;DHT22;2730;51.512;7.504;2022-10-16T16:17:28;16.70;99.90
5415;DHT22;2730;51.512;7.504;2022-10-16T16:19:57;16.70;99.90
5415;DHT22;2730;51.512;7.504;2022-10-16T16:22:25;16.70;99.90
5415;DHT22;2730;51.512;7.504;2022-10-16T16:24:52;16.60;99.90
5415;DHT22;2730;51.512;7.504;2022-10-16T16:27:19;16.60;99.90
5415;DHT22;2730;51.512;7.504;2022-10-16T16:29:46;16.50;99.90
5415;DHT22;2730;51.512;7.504;2022-10-16T16:32:14;16.40;99.90
5415;DHT22;2730;51.512;7.504;2022-10-16T16:34:41;16.40;99.90
5415;DHT22;2730;51.512;7.504;2022-10-16T16:37:09;16.30;99.90
5415;DHT22;2730;51.512;7.504;2022-10-16T16:39:36;16.30;99.90
5415;DHT22;2730;51.512;7.504;2022-10-16T16:42:05;16.30;99.90
5415;DHT22;2730;51.512;7.504;2022-10-16T16:44:33;16.20;99.90
5415;DHT22;2730;51.512;7.504;2022-10-16T16:47:02;16.20;99.90
5415;DHT22;2730;51.512;7.504;2022-10-16T16:49:28;16.10;99.90
5415;DHT22;2730;51.512;7.504;2022-10-16T16:51:55;16.10;99.90
5415;DHT22;2730;51.512;7.504;2022-10-16T16:54:24;16.10;99.90
5415;DHT22;2730;51.512;7.504;2022-10-16T16:56:50;16.00;99.90
5415;DHT22;2730;51.512;7.504;2022-10-16T16:59:19;16.00;99.90
5415;DHT22;2730;51.512;7.504;2022-10-16T17:01:47;16.00;99.90
5415;DHT22;2730;51.512;7.504;2022-10-16T17:04:14;16.00;99.90
5415;DHT22;2730;51.512;7.504;2022-10-16T17:06:44;16.00;99.90
5415;DHT22;2730;51.512;7.504;2022-10-16T17:09:11;16.00;99.90
5415;DHT22;2730;51.512;7.504;2022-10-16T17:11:41;16.00;99.90
5415;DHT22;2730;51.512;7.504;2022-10-16T17:14:10;16.00;99.90
5415;DHT22;2730;51.512;7.504;2022-10-16T17:16:38;15.90;99.90
5415;DHT22;2730;51.512;7.504;2022-10-16T17:19:12;15.90;99.90
5415;DHT22;2730;51.512;7.504;2022-10-16T17:21:40;15.90;99.90
5415;DHT22;2730;51.512;7.504;2022-10-16T17:24:08;15.80;99.90
5415;DHT22;2730;51.512;7.504;2022-10-16T17:26:36;15.80;99.90
5415;DHT22;2730;51.512;7.504;2022-10-16T17:29:11;15.80;99.90
5415;DHT22;2730;51.512;7.504;2022-10-16T17:31:39;15.80;99.90
5415;DHT22;2730;51.512;7.504;2022-10-16T17:34:07;15.80;99.90
5415;DHT22;2730;51.512;7.504;2022-10-16T17:36:36;15.80;99.90
5415;DHT22;2730;51.512;7.504;2022-10-16T17:39:05;15.70;99.90
5415;DHT22;2730;51.512;7.504;2022-10-16T17:41:33;15.70;99.90
5415;DHT22;2730;51.512;7.504;2022-10-16T17:44:00;15.70;99.90
5415;DHT22;2730;51.512;7.504;2022-10-16T17:46:28;15.70;99.90
5415;DHT22;2730;51.512;7.504;2022-10-16T17:48:58;15.60;99.90
5415;DHT22;2730;51.512;7.504;2022-10-16T17:51:29;15.50;99.90
5415;DHT22;2730;51.512;7.504;2022-10-16T17:53:58;15.50;99.90
5415;DHT22;2730;51.512;7.504;2022-10-16T17:56:26;15.50;99.90
5415;DHT22;2730;51.512;7.504;2022-10-16T17:58:55;15.50;99.90
5415;DHT22;2730;51.512;7.504;2022-10-16T18:01:25;15.50;99.90
5415;DHT22;2730;51.512;7.504;2022-10-16T18:04:54;15.60;99.90
5415;DHT22;2730;51.512;7.504;2022-10-16T18:07:21;15.60;99.90
5415;DHT22;2730;51.512;7.504;2022-10-16T18:09:48;15.70;99.90
5415;DHT22;2730;51.512;7.504;2022-10-16T18:12:15;15.70;99.90
5415;DHT22;2730;51.512;7.504;2022-10-16T18:14:41;15.70;99.90
5415;DHT22;2730;51.512;7.504;2022-10-16T18:17:08;15.70;99.90
5415;DHT22;2730;51.512;7.504;2022-10-16T18:19:35;15.70;99.90
5415;DHT22;2730;51.512;7.504;2022-10-16T18:22:03;15.70;99.90
5415;DHT22;2730;51.512;7.504;2022-10-16T18:24:30;15.80;99.90
5415;DHT22;2730;51.512;7.504;2022-10-16T18:26:57;15.80;99.90
5415;DHT22;2730;51.512;7.504;2022-10-16T18:29:24;15.80;99.90
5415;DHT22;2730;51.512;7.504;2022-10-16T18:31:52;15.80;99.90
5415;DHT22;2730;51.512;7.504;2022-10-16T18:34:19;15.80;99.90
5415;DHT22;2730;51.512;7.504;2022-10-16T18:36:46;15.80;99.90
5415;DHT22;2730;51.512;7.504;2022-10-16T18:39:14;15.80;99.90
5415;DHT22;2730;51.512;7.504;2022-10-16T18:41:43;15.80;99.90
5415;DHT22;2730;51.512;7.504;2022-10-16T18:44:10;15.80;99.90
5415;DHT22;2730;51.512;7.504;2022-10-16T18:46:37;15.80;99.90
5415;DHT22;2730;51.512;7.504;2022-10-16T18:49:05;15.80;99.90
5415;DHT22;2730;51.512;7.504;2022-10-16T18:51:34;15.70;99.90
5415;DHT22;2730;51.512;7.504;2022-10-16T18:54:03;15.70;99.90
5415;DHT22;2730;51.512;7.504;2022-10-16T18:56:33;15.70;99.90
5415;DHT22;2730;51.512;7.504;2022-10-16T18:59:02;15.70;99.90
5415;DHT22;2730;51.512;7.504;2022-10-16T19:01:30;15.70;99.90
5415;DHT22;2730;51.512;7.504;2022-10-16T19:03:59;15.70;99.90
5415;DHT22;2730;51.512;7.504;2022-10-16T19:06:27;15.70;99.90
5415;DHT22;2730;51.512;7.504;2022-10-16T19:08:55;15.70;99.90
5415;DHT22;2730;51.512;7.504;2022-10-16T19:11:23;15.70;99.90
5415;DHT22;2730;51.512;7.504;2022-10-16T19:13:52;15.70;99.90
5415;DHT22;2730;51.512;7.504;2022-10-16T19:16:22;15.70;99.90
5415;DHT22;2730;51.512;7.504;2022-10-16T19:18:50;15.70;99.90
5415;DHT22;2730;51.512;7.504;2022-10-16T19:21:18;15.70;99.90
5415;DHT22;2730;51.512;7.504;2022-10-16T19:23:45;15.60;99.90
5415;DHT22;2730;51.512;7.504;2022-10-16T19:26:14;15.60;99.90
5415;DHT22;2730;51.512;7.504;2022-10-16T19:28:41;15.70;99.90
5415;DHT22;2730;51.512;7.504;2022-10-16T19:31:11;15.70;99.90
5415;DHT22;2730;51.512;7.504;2022-10-16T19:33:39;15.70;99.90
5415;DHT22;2730;51.512;7.504;2022-10-16T19:36:07;15.70;99.90
5415;DHT22;2730;51.512;7.504;2022-10-16T19:38:34;15.70;99.90
5415;DHT22;2730;51.512;7.504;2022-10-16T19:41:04;15.70;99.90
5415;DHT22;2730;51.512;7.504;2022-10-16T19:43:32;15.70;99.90
5415;DHT22;2730;51.512;7.504;2022-10-16T19:46:02;15.60;99.90
5415;DHT22;2730;51.512;7.504;2022-10-16T19:48:30;15.60;99.90
5415;DHT22;2730;51.512;7.504;2022-10-16T19:50:57;15.50;99.90
5415;DHT22;2730;51.512;7.504;2022-10-16T19:53:25;15.40;99.90
5415;DHT22;2730;51.512;7.504;2022-10-16T19:55:52;15.30;99.90
5415;DHT22;2730;51.512;7.504;2022-10-16T19:58:19;15.30;99.90
5415;DHT22;2730;51.512;7.504;2022-10-16T20:00:46;15.30;99.90
5415;DHT22;2730;51.512;7.504;2022-10-16T20:03:13;15.20;99.90
5415;DHT22;2730;51.512;7.504;2022-10-16T20:05:49;15.20;99.90
5415;DHT22;2730;51.512;7.504;2022-10-16T20:08:15;15.10;99.90
5415;DHT22;2730;51.512;7.504;2022-10-16T20:10:47;15.10;99.90
5415;DHT22;2730;51.512;7.504;2022-10-16T20:13:14;15.10;99.90
5415;DHT22;2730;51.512;7.504;2022-10-16T20:15:41;15.10;99.90
5415;DHT22;2730;51.512;7.504;2022-10-16T20:18:07;15.10;99.90
5415;DHT22;2730;51.512;7.504;2022-10-16T20:20:36;15.10;99.90
5415;DHT22;2730;51.512;7.504;2022-10-16T20:23:04;15.10;99.90
5415;DHT22;2730;51.512;7.504;2022-10-16T20:25:33;15.10;99.90
5415;DHT22;2730;51.512;7.504;2022-10-16T20:28:00;15.00;99.90
5415;DHT22;2730;51.512;7.504;2022-10-16T20:30:27;15.00;99.90
5415;DHT22;2730;51.512;7.504;2022-10-16T20:32:54;15.00;99.90
5415;DHT22;2730;51.512;7.504;2022-10-16T20:35:21;15.00;99.90
5415;DHT22;2730;51.512;7.504;2022-10-16T20:37:48;15.00;99.90
5415;DHT22;2730;51.512;7.504;2022-10-16T20:40:16;15.00;99.90
5415;DHT22;2730;51.512;7.504;2022-10-16T20:42:43;14.90;99.90
5415;DHT22;2730;51.512;7.504;2022-10-16T20:45:10;14.90;99.90
5415;DHT22;2730;51.512;7.504;2022-10-16T20:47:37;14.90;99.90
5415;DHT22;2730;51.512;7.504;2022-10-16T20:50:04;14.80;99.90
5415;DHT22;2730;51.512;7.504;2022-10-16T20:52:31;14.70;99.90
5415;DHT22;2730;51.512;7.504;2022-10-16T20:54:58;14.70;99.90
5415;DHT22;2730;51.512;7.504;2022-10-16T20:57:26;14.60;99.90
5415;DHT22;2730;51.512;7.504;2022-10-16T20:59:53;14.50;99.90
5415;DHT22;2730;51.512;7.504;2022-10-16T21:02:20;14.50;99.90
5415;DHT22;2730;51.512;7.504;2022-10-16T21:04:47;14.50;99.90
5415;DHT22;2730;51.512;7.504;2022-10-16T21:07:14;14.50;99.90
5415;DHT22;2730;51.512;7.504;2022-10-16T21:09:41;14.50;99.90
5415;DHT22;2730;51.512;7.504;2022-10-16T21:12:08;14.50;99.90
5415;DHT22;2730;51.512;7.504;2022-10-16T21:14:37;14.60;99.90
5415;DHT22;2730;51.512;7.504;2022-10-16T21:17:03;14.60;99.90
5415;DHT22;2730;51.512;7.504;2022-10-16T21:19:31;14.60;99.90
5415;DHT22;2730;51.512;7.504;2022-10-16T21:21:58;14.60;99.90
5415;DHT22;2730;51.512;7.504;2022-10-16T21:24:24;14.60;99.90
5415;DHT22;2730;51.512;7.504;2022-10-16T21:26:51;14.60;99.90
5415;DHT22;2730;51.512;7.504;2022-10-16T21:29:18;14.60;99.90